Time;durP1;ratioP1;P1;durP2;ratioP2;P2;SDS_P1;SDS_P2;PMS_P1;PMS_P2;Temp;Humidity;BMP_temperature;BMP_pressure;BME280_temperature;BME280_humidity;BME280_pressure;Samples;Min_cycle;Max_cycle;Signal;HPM_P1;HPM_P2
2024/01/01 00:02:24;;;;;;;;;;;13.80;99.90;;;;;;5089956;28;19965;-81
2024/01/01 00:04:50;;;;;;;;;;;13.80;99.90;;;;;;5089869;28;19951;-83
2024/01/01 00:07:16;;;;;;;;;;;13.80;99.90;;;;;;5088345;28;19919;-81
2024/01/01 00:09:42;;;;;;;;;;;13.80;99.90;;;;;;5090322;28;19969;-82
2024/01/01 00:12:09;;;;;;;;;;;13.80;99.90;;;;;;5090197;28;20348;-81
2024/01/01 00:14:34;;;;;;;;;;;13.80;99.90;;;;;;5090004;28;19972;-81
2024/01/01 00:17:01;;;;;;;;;;;13.70;99.90;;;;;;5089809;28;19912;-81
2024/01/01 00:19:27;;;;;;;;;;;13.70;99.90;;;;;;5088534;28;19951;-81
2024/01/01 00:21:53;;;;;;;;;;;13.70;99.90;;;;;;5090511;28;19931;-83
2024/01/01 00:24:18;;;;;;;;;;;13.70;99.90;;;;;;5089137;28;19963;-83
2024/01/01 00:26:44;;;;;;;;;;;13.70;99.90;;;;;;5088456;28;19912;-82
2024/01/01 00:29:10;;;;;;;;;;;13.70;99.90;;;;;;5090442;28;19999;-82
2024/01/01 00:34:39;;;;;;;;;;;13.70;99.90;;;;;;5091356;28;20355;-82
2024/01/01 00:37:05;;;;;;;;;;;13.70;99.90;;;;;;5089606;28;19920;-82
2024/01/01 00:39:30;;;;;;;;;;;13.70;99.90;;;;;;5090390;28;19912;-81
2024/01/01 00:41:56;;;;;;;;;;;13.70;99.90;;;;;;5090329;28;20331;-81
2024/01/01 00:44:22;;;;;;;;;;;13.70;99.90;;;;;;5091600;28;19962;-82
2024/01/01 00:46:48;;;;;;;;;;;13.70;99.90;;;;;;5093449;28;20313;-82
2024/01/01 00:49:14;;;;;;;;;;;13.70;99.90;;;;;;5093672;28;19991;-82
2024/01/01 00:51:39;;;;;;;;;;;13.80;99.90;;;;;;5093534;28;19938;-82
2024/01/01 00:54:05;;;;;;;;;;;13.80;99.90;;;;;;5093860;28;19908;-81
2024/01/01 00:56:31;;;;;;;;;;;13.80;99.90;;;;;;5092011;28;19987;-82
2024/01/01 00:58:57;;;;;;;;;;;13.80;99.90;;;;;;5093591;28;19908;-81
2024/01/01 01:01:23;;;;;;;;;;;13.80;99.90;;;;;;5093730;28;19919;-81
2024/01/01 01:03:48;;;;;;;;;;;13.80;99.90;;;;;;5093335;28;20399;-81
2024/01/01 01:06:14;;;;;;;;;;;13.80;99.90;;;;;;5093333;28;19951;-81
2024/01/01 01:08:40;;;;;;;;;;;13.80;99.90;;;;;;5093335;28;20347;-81
2024/01/01 01:11:06;;;;;;;;;;;13.80;99.90;;;;;;5092879;28;20334;-81
2024/01/01 01:13:32;;;;;;;;;;;13.80;99.90;;;;;;5093193;28;19935;-81
2024/01/01 01:15:57;;;;;;;;;;;13.80;99.90;;;;;;5093089;28;19991;-82
2024/01/01 01:18:23;;;;;;;;;;;13.80;99.90;;;;;;5093176;28;19915;-81
2024/01/01 01:20:49;;;;;;;;;;;13.80;99.90;;;;;;5091521;28;19963;-82
2024/01/01 01:23:15;;;;;;;;;;;13.80;99.90;;;;;;5092698;28;19908;-80
2024/01/01 01:25:41;;;;;;;;;;;13.80;99.90;;;;;;5093194;28;19908;-81
2024/01/01 01:28:07;;;;;;;;;;;13.80;99.90;;;;;;5093085;28;20362;-81
2024/01/01 01:30:33;;;;;;;;;;;13.80;99.90;;;;;;5092745;28;19916;-81
2024/01/01 01:32:59;;;;;;;;;;;13.80;99.90;;;;;;5092496;28;20027;-80
2024/01/01 01:35:25;;;;;;;;;;;13.80;99.90;;;;;;5092976;28;20270;-81
2024/01/01 01:37:50;;;;;;;;;;;13.80;99.90;;;;;;5090925;28;19920;-80
2024/01/01 01:40:16;;;;;;;;;;;13.80;99.90;;;;;;5093019;28;20246;-81
2024/01/01 01:42:48;;;;;;;;;;;13.80;99.90;;;;;;5092519;28;20010;-81
2024/01/01 01:45:14;;;;;;;;;;;13.90;99.90;;;;;;5092874;28;19928;-81
2024/01/01 01:47:40;;;;;;;;;;;13.80;99.90;;;;;;5092496;28;20275;-81
2024/01/01 01:50:06;;;;;;;;;;;13.80;99.90;;;;;;5092702;28;20425;-81
2024/01/01 01:52:34;;;;;;;;;;;13.70;99.90;;;;;;5092761;28;20027;-81
2024/01/01 01:55:00;;;;;;;;;;;13.70;99.90;;;;;;5092325;28;19912;-81
2024/01/01 01:57:26;;;;;;;;;;;13.70;99.90;;;;;;5092907;28;19953;-81
2024/01/01 01:59:52;;;;;;;;;;;13.70;99.90;;;;;;5092452;28;19915;-81
2024/01/01 02:02:19;;;;;;;;;;;13.70;99.90;;;;;;5091999;28;19953;-81
2024/01/01 02:04:45;;;;;;;;;;;13.60;99.90;;;;;;5076853;28;20321;-81
2024/01/01 02:07:11;;;;;;;;;;;13.60;99.90;;;;;;5072322;28;20061;-81
2024/01/01 02:09:38;;;;;;;;;;;13.50;99.90;;;;;;5071836;28;19909;-81
2024/01/01 02:12:04;;;;;;;;;;;13.50;99.90;;;;;;5071176;28;20229;-81
2024/01/01 02:14:30;;;;;;;;;;;13.50;99.90;;;;;;5071613;28;20588;-81
2024/01/01 02:16:56;;;;;;;;;;;13.50;99.90;;;;;;5071714;28;19908;-81
2024/01/01 02:19:23;;;;;;;;;;;13.50;99.90;;;;;;5071458;28;19987;-80
2024/01/01 02:21:50;;;;;;;;;;;13.50;99.90;;;;;;5071402;28;19912;-80
2024/01/01 02:24:16;;;;;;;;;;;13.40;99.90;;;;;;5070258;28;20319;-81
2024/01/01 02:26:43;;;;;;;;;;;13.50;99.90;;;;;;5071701;28;19966;-81
2024/01/01 02:29:09;;;;;;;;;;;13.40;99.90;;;;;;5071487;28;20269;-81
2024/01/01 02:31:35;;;;;;;;;;;13.40;99.90;;;;;;5071019;28;19912;-81
2024/01/01 02:34:01;;;;;;;;;;;13.40;99.90;;;;;;5080284;28;19908;-81
2024/01/01 02:36:27;;;;;;;;;;;13.40;99.90;;;;;;5091561;28;19952;-80
2024/01/01 02:38:53;;;;;;;;;;;13.40;99.90;;;;;;5092120;28;19912;-81
2024/01/01 02:41:18;;;;;;;;;;;13.30;99.90;;;;;;5091669;28;19908;-80
2024/01/01 02:43:44;;;;;;;;;;;13.40;99.90;;;;;;5090330;28;19998;-81
2024/01/01 02:46:10;;;;;;;;;;;13.40;99.90;;;;;;5091721;28;19920;-80
2024/01/01 02:48:36;;;;;;;;;;;13.40;99.90;;;;;;5091988;28;20387;-80
2024/01/01 02:51:02;;;;;;;;;;;13.40;99.90;;;;;;5091440;28;19919;-81
2024/01/01 02:53:28;;;;;;;;;;;13.40;99.90;;;;;;5091122;28;19908;-81
2024/01/01 02:55:54;;;;;;;;;;;13.30;99.90;;;;;;5090958;28;20050;-80
2024/01/01 02:58:20;;;;;;;;;;;13.30;99.90;;;;;;5091597;28;19947;-80
2024/01/01 03:00:47;;;;;;;;;;;13.30;99.90;;;;;;5091011;28;19915;-81
2024/01/01 03:03:17;;;;;;;;;;;13.30;99.90;;;;;;5091385;28;19995;-81
2024/01/01 03:05:43;;;;;;;;;;;13.30;99.90;;;;;;5091446;28;20260;-80
2024/01/01 03:08:09;;;;;;;;;;;13.30;99.90;;;;;;5090899;28;19908;-81
2024/01/01 03:10:35;;;;;;;;;;;13.30;99.90;;;;;;5091083;28;19908;-81
2024/01/01 03:13:01;;;;;;;;;;;13.40;99.90;;;;;;5089446;28;19912;-81
2024/01/01 03:15:27;;;;;;;;;;;13.30;99.90;;;;;;5091271;28;19908;-79
2024/01/01 03:17:53;;;;;;;;;;;13.30;99.90;;;;;;5090969;28;19931;-81
2024/01/01 03:20:19;;;;;;;;;;;13.40;99.90;;;;;;5091108;28;19999;-80
2024/01/01 03:22:45;;;;;;;;;;;13.40;99.90;;;;;;5089293;28;19915;-80
2024/01/01 03:25:11;;;;;;;;;;;13.40;99.90;;;;;;5090757;28;19909;-81
2024/01/01 03:27:37;;;;;;;;;;;13.40;99.90;;;;;;5091123;28;20111;-81
2024/01/01 03:30:06;;;;;;;;;;;13.40;99.90;;;;;;5090974;28;20344;-82
2024/01/01 03:32:41;;;;;;;;;;;13.50;99.90;;;;;;5089184;28;19927;-81
2024/01/01 03:35:07;;;;;;;;;;;13.50;99.90;;;;;;5091874;28;19935;-80
2024/01/01 03:37:32;;;;;;;;;;;13.50;99.90;;;;;;5092497;28;19945;-80
2024/01/01 03:39:58;;;;;;;;;;;13.50;99.90;;;;;;5090988;28;19927;-80
2024/01/01 03:42:24;;;;;;;;;;;13.40;99.90;;;;;;5090329;28;19923;-80
2024/01/01 03:44:50;;;;;;;;;;;13.40;99.90;;;;;;5089029;28;19981;-80
2024/01/01 03:47:16;;;;;;;;;;;13.30;99.90;;;;;;5090347;28;20357;-81
2024/01/01 03:49:42;;;;;;;;;;;13.40;99.90;;;;;;5089204;28;19970;-81
2024/01/01 03:52:08;;;;;;;;;;;13.40;99.90;;;;;;5090079;28;19924;-80
2024/01/01 03:54:33;;;;;;;;;;;13.30;99.90;;;;;;5090324;28;19908;-81
2024/01/01 03:56:59;;;;;;;;;;;13.30;99.90;;;;;;5090912;28;20027;-80
2024/01/01 03:59:25;;;;;;;;;;;13.30;99.90;;;;;;5090657;28;20057;-80
2024/01/01 04:01:51;;;;;;;;;;;13.30;99.90;;;;;;5090313;28;20045;-80
2024/01/01 04:04:17;;;;;;;;;;;13.30;99.90;;;;;;5079483;28;19916;-81
2024/01/01 04:06:43;;;;;;;;;;;13.30;99.90;;;;;;5070717;28;19953;-81
2024/01/01 04:09:10;;;;;;;;;;;13.30;99.90;;;;;;5069937;28;20395;-81
2024/01/01 04:11:36;;;;;;;;;;;13.30;99.90;;;;;;5069383;28;20001;-81
2024/01/01 04:14:02;;;;;;;;;;;13.30;99.90;;;;;;5069213;28;19909;-81
2024/01/01 04:16:28;;;;;;;;;;;13.30;99.90;;;;;;5067790;28;19991;-81
2024/01/01 04:18:54;;;;;;;;;;;13.30;99.90;;;;;;5068834;28;20344;-81
2024/01/01 04:21:20;;;;;;;;;;;13.30;99.90;;;;;;5072703;28;20019;-81
2024/01/01 04:23:47;;;;;;;;;;;13.30;99.90;;;;;;5074232;28;19908;-81
2024/01/01 04:26:14;;;;;;;;;;;13.30;99.90;;;;;;5074166;28;20020;-82
2024/01/01 04:28:39;;;;;;;;;;;13.30;99.90;;;;;;5072626;28;19939;-80
2024/01/01 04:31:05;;;;;;;;;;;13.20;99.90;;;;;;5073931;28;20420;-81
2024/01/01 04:33:31;;;;;;;;;;;13.20;99.90;;;;;;5078838;28;20379;-81
2024/01/01 04:35:57;;;;;;;;;;;13.20;99.90;;;;;;5092531;28;19930;-81
2024/01/01 04:38:23;;;;;;;;;;;13.20;99.90;;;;;;5094368;28;19963;-81
2024/01/01 04:40:48;;;;;;;;;;;13.20;99.90;;;;;;5094137;28;20413;-81
2024/01/01 04:43:14;;;;;;;;;;;13.30;99.90;;;;;;5093885;28;20003;-81
2024/01/01 04:45:40;;;;;;;;;;;13.30;99.90;;;;;;5093940;28;19912;-81
2024/01/01 04:48:06;;;;;;;;;;;13.20;99.90;;;;;;5093871;28;20336;-81
2024/01/01 04:50:32;;;;;;;;;;;13.20;99.90;;;;;;5094184;28;19911;-81
2024/01/01 04:52:58;;;;;;;;;;;13.20;99.90;;;;;;5093993;28;19923;-81
2024/01/01 04:55:24;;;;;;;;;;;13.20;99.90;;;;;;5094068;28;20460;-81
2024/01/01 04:57:50;;;;;;;;;;;13.20;99.90;;;;;;5094781;28;19912;-80
2024/01/01 05:00:15;;;;;;;;;;;13.10;99.90;;;;;;5094179;28;20362;-81
2024/01/01 05:02:41;;;;;;;;;;;13.10;99.90;;;;;;5093843;28;20054;-80
2024/01/01 05:05:10;;;;;;;;;;;13.10;99.90;;;;;;5093698;28;19908;-81
2024/01/01 05:07:37;;;;;;;;;;;13.00;99.90;;;;;;5095061;28;19908;-81
2024/01/01 05:10:03;;;;;;;;;;;13.10;99.90;;;;;;5093916;28;19908;-81
2024/01/01 05:12:29;;;;;;;;;;;13.00;99.90;;;;;;5092254;28;20316;-81
2024/01/01 05:14:55;;;;;;;;;;;12.90;99.90;;;;;;5094058;28;19920;-81
2024/01/01 05:17:20;;;;;;;;;;;12.90;99.90;;;;;;5093747;28;20427;-80
2024/01/01 05:19:50;;;;;;;;;;;12.90;99.90;;;;;;5093961;28;19908;-81
2024/01/01 05:22:16;;;;;;;;;;;12.90;99.90;;;;;;5093637;28;19957;-81
2024/01/01 05:24:42;;;;;;;;;;;12.90;99.90;;;;;;5093686;28;19908;-81
2024/01/01 05:27:09;;;;;;;;;;;12.90;99.90;;;;;;5094083;28;20281;-81
2024/01/01 05:29:34;;;;;;;;;;;12.90;99.90;;;;;;5091587;28;19909;-81
2024/01/01 05:32:00;;;;;;;;;;;12.90;99.90;;;;;;5091837;28;19935;-81
2024/01/01 05:34:27;;;;;;;;;;;13.00;99.90;;;;;;5093657;28;20291;-81
2024/01/01 05:36:53;;;;;;;;;;;13.00;99.90;;;;;;5093530;28;19916;-81
2024/01/01 05:39:19;;;;;;;;;;;13.00;99.90;;;;;;5093946;28;19915;-81
2024/01/01 05:41:44;;;;;;;;;;;13.00;99.90;;;;;;5091187;28;19908;-81
2024/01/01 05:44:10;;;;;;;;;;;13.00;99.90;;;;;;5093886;28;20003;-80
2024/01/01 05:46:36;;;;;;;;;;;13.00;99.90;;;;;;5093417;28;19944;-81
2024/01/01 05:49:02;;;;;;;;;;;13.00;99.90;;;;;;5093627;28;20346;-81
2024/01/01 05:51:28;;;;;;;;;;;13.00;99.90;;;;;;5093242;28;19916;-81
2024/01/01 05:53:57;;;;;;;;;;;13.10;99.90;;;;;;5091452;28;19931;-81
2024/01/01 05:56:24;;;;;;;;;;;13.00;99.90;;;;;;5093047;28;19962;-82
2024/01/01 05:58:50;;;;;;;;;;;13.10;99.90;;;;;;5091475;28;19912;-80
2024/01/01 06:01:16;;;;;;;;;;;13.10;99.90;;;;;;5092700;28;20280;-81
2024/01/01 06:03:44;;;;;;;;;;;13.00;99.90;;;;;;5092814;28;19934;-81
2024/01/01 06:06:10;;;;;;;;;;;13.00;99.90;;;;;;5091359;28;20018;-80
2024/01/01 06:08:36;;;;;;;;;;;13.10;99.90;;;;;;5092887;28;19958;-77
2024/01/01 06:11:03;;;;;;;;;;;13.00;99.90;;;;;;5092596;28;19916;-81
2024/01/01 06:13:29;;;;;;;;;;;13.00;99.90;;;;;;5092848;28;19917;-81
2024/01/01 06:15:55;;;;;;;;;;;13.00;99.90;;;;;;5092929;28;20065;-81
2024/01/01 06:18:21;;;;;;;;;;;13.10;99.90;;;;;;5092454;28;20370;-81
2024/01/01 06:20:47;;;;;;;;;;;13.00;99.90;;;;;;5092733;28;19927;-81
2024/01/01 06:23:13;;;;;;;;;;;13.10;99.90;;;;;;5092637;28;19912;-81
2024/01/01 06:25:39;;;;;;;;;;;13.10;99.90;;;;;;5091387;28;20279;-81
2024/01/01 06:28:04;;;;;;;;;;;13.10;99.90;;;;;;5092396;28;19978;-81
2024/01/01 06:30:32;;;;;;;;;;;13.10;99.90;;;;;;5092355;28;19931;-81
2024/01/01 06:32:58;;;;;;;;;;;13.10;99.90;;;;;;5090425;28;20347;-81
2024/01/01 06:35:28;;;;;;;;;;;13.00;99.90;;;;;;5092271;28;20002;-81
2024/01/01 06:37:54;;;;;;;;;;;13.00;99.90;;;;;;5092493;28;20229;-81
2024/01/01 06:40:20;;;;;;;;;;;13.10;99.90;;;;;;5092109;28;19957;-80
2024/01/01 06:42:46;;;;;;;;;;;13.10;99.90;;;;;;5090010;28;19908;-81
2024/01/01 06:45:13;;;;;;;;;;;13.20;99.90;;;;;;5092021;28;20006;-81
2024/01/01 06:47:39;;;;;;;;;;;13.20;99.90;;;;;;5092122;28;19912;-81
2024/01/01 06:50:05;;;;;;;;;;;13.20;99.90;;;;;;5091927;28;20007;-81
2024/01/01 06:52:31;;;;;;;;;;;13.30;99.90;;;;;;5091923;28;19938;-81
2024/01/01 06:54:57;;;;;;;;;;;13.30;99.90;;;;;;5092037;28;19988;-81
2024/01/01 06:57:22;;;;;;;;;;;13.40;99.90;;;;;;5092156;28;19908;-81
2024/01/01 06:59:48;;;;;;;;;;;13.50;99.90;;;;;;5090419;28;19908;-81
2024/01/01 07:02:14;;;;;;;;;;;13.60;99.90;;;;;;5091853;28;19908;-81
2024/01/01 07:04:40;;;;;;;;;;;13.60;99.90;;;;;;5091754;28;19957;-81
2024/01/01 07:07:05;;;;;;;;;;;13.70;99.90;;;;;;5091818;28;19912;-79
2024/01/01 07:09:31;;;;;;;;;;;13.80;99.90;;;;;;5091914;28;20356;-80
2024/01/01 07:11:57;;;;;;;;;;;13.90;99.90;;;;;;5089816;28;20011;-80
2024/01/01 07:14:23;;;;;;;;;;;14.00;99.90;;;;;;5092000;28;19927;-80
2024/01/01 07:16:53;;;;;;;;;;;13.90;99.90;;;;;;5091706;28;19908;-82
2024/01/01 07:19:18;;;;;;;;;;;14.00;99.90;;;;;;5092234;28;19908;-81
2024/01/01 07:21:44;;;;;;;;;;;14.10;99.90;;;;;;5091860;28;19953;-81
2024/01/01 07:24:10;;;;;;;;;;;14.10;99.90;;;;;;5092265;28;20252;-80
2024/01/01 07:26:36;;;;;;;;;;;14.00;99.90;;;;;;5090349;28;19915;-80
2024/01/01 07:29:02;;;;;;;;;;;14.00;99.90;;;;;;5091878;28;19975;-81
2024/01/01 07:31:28;;;;;;;;;;;13.90;99.90;;;;;;5089994;28;19912;-80
2024/01/01 07:33:54;;;;;;;;;;;14.10;99.90;;;;;;5091578;28;19931;-81
2024/01/01 07:36:20;;;;;;;;;;;14.30;99.90;;;;;;5089867;28;19912;-80
2024/01/01 07:38:46;;;;;;;;;;;14.50;99.90;;;;;;5091946;28;19912;-81
2024/01/01 07:41:12;;;;;;;;;;;14.80;99.90;;;;;;5091581;28;20048;-82
2024/01/01 07:43:37;;;;;;;;;;;15.20;99.90;;;;;;5091489;28;19908;-82
2024/01/01 07:46:03;;;;;;;;;;;15.60;99.90;;;;;;5091649;28;19957;-81
2024/01/01 07:48:29;;;;;;;;;;;16.00;99.90;;;;;;5091476;28;19912;-81
2024/01/01 07:50:55;;;;;;;;;;;16.40;99.90;;;;;;5091418;28;20287;-80
2024/01/01 07:53:21;;;;;;;;;;;16.80;99.90;;;;;;5091572;28;19941;-81
2024/01/01 07:55:46;;;;;;;;;;;16.80;99.90;;;;;;5091647;28;20253;-81
2024/01/01 07:58:12;;;;;;;;;;;16.80;99.90;;;;;;5091622;28;20002;-81
2024/01/01 08:00:39;;;;;;;;;;;16.70;99.90;;;;;;5090262;28;20007;-81
2024/01/01 08:03:05;;;;;;;;;;;16.70;99.90;;;;;;5089517;28;19931;-81
2024/01/01 08:05:30;;;;;;;;;;;16.70;99.90;;;;;;5091388;28;19912;-81
2024/01/01 08:07:58;;;;;;;;;;;16.50;99.90;;;;;;5091474;28;19912;-81
2024/01/01 08:10:23;;;;;;;;;;;16.40;99.90;;;;;;5091926;28;19915;-81
2024/01/01 08:12:49;;;;;;;;;;;16.30;99.90;;;;;;5092154;28;19916;-82
2024/01/01 08:15:15;;;;;;;;;;;16.40;99.90;;;;;;5091635;28;19908;-81
2024/01/01 08:17:41;;;;;;;;;;;16.70;99.90;;;;;;5093006;28;19924;-81
2024/01/01 08:20:07;;;;;;;;;;;16.90;99.90;;;;;;5092879;28;19912;-80
2024/01/01 08:22:32;;;;;;;;;;;17.20;99.90;;;;;;5093000;28;19938;-81
2024/01/01 08:24:58;;;;;;;;;;;17.50;99.90;;;;;;5093507;28;20002;-82
2024/01/01 08:27:24;;;;;;;;;;;17.70;99.90;;;;;;5091033;28;19916;-81
2024/01/01 08:29:50;;;;;;;;;;;17.90;99.90;;;;;;5092168;28;20332;-81
2024/01/01 08:32:16;;;;;;;;;;;18.00;99.90;;;;;;5089383;28;20310;-80
2024/01/01 08:34:42;;;;;;;;;;;18.10;99.90;;;;;;5091025;28;20015;-81
2024/01/01 08:37:07;;;;;;;;;;;18.10;99.90;;;;;;5090869;28;19920;-81
2024/01/01 08:39:33;;;;;;;;;;;18.30;99.90;;;;;;5091271;28;20259;-81
2024/01/01 08:41:59;;;;;;;;;;;18.30;99.90;;;;;;5091129;28;20328;-80
2024/01/01 08:44:25;;;;;;;;;;;18.30;99.90;;;;;;5089179;28;19991;-82
2024/01/01 08:46:51;;;;;;;;;;;18.40;99.90;;;;;;5091049;28;19919;-81
2024/01/01 08:49:16;;;;;;;;;;;18.40;99.90;;;;;;5090935;28;20279;-78
2024/01/01 08:51:43;;;;;;;;;;;18.40;99.90;;;;;;5089747;28;19919;-82
2024/01/01 08:54:08;;;;;;;;;;;18.30;99.90;;;;;;5090622;28;19912;-80
2024/01/01 08:56:34;;;;;;;;;;;18.20;99.90;;;;;;5088730;28;19919;-81
2024/01/01 08:59:00;;;;;;;;;;;18.40;99.90;;;;;;5090870;28;19974;-81
2024/01/01 09:01:26;;;;;;;;;;;18.30;99.90;;;;;;5090815;28;19928;-80
2024/01/01 09:03:52;;;;;;;;;;;18.20;99.90;;;;;;5089088;28;19912;-81
2024/01/01 09:06:18;;;;;;;;;;;18.00;99.90;;;;;;5093824;28;19961;-81
2024/01/01 09:08:44;;;;;;;;;;;18.10;99.90;;;;;;5094533;28;19909;-81
2024/01/01 09:11:10;;;;;;;;;;;18.20;99.90;;;;;;5094648;28;19960;-80
2024/01/01 09:13:35;;;;;;;;;;;18.20;99.90;;;;;;5094680;28;19909;-80
2024/01/01 09:16:02;;;;;;;;;;;18.50;99.90;;;;;;5094842;28;19908;-80
2024/01/01 09:18:28;;;;;;;;;;;18.70;99.90;;;;;;5095043;28;19908;-80
2024/01/01 09:20:54;;;;;;;;;;;18.70;99.90;;;;;;5095341;28;20195;-82
2024/01/01 09:23:20;;;;;;;;;;;18.70;99.90;;;;;;5094733;28;19908;-81
2024/01/01 09:25:46;;;;;;;;;;;18.70;99.90;;;;;;5094072;28;19919;-80
2024/01/01 09:28:12;;;;;;;;;;;18.90;99.90;;;;;;5094429;28;20402;-81
2024/01/01 09:30:38;;;;;;;;;;;18.80;99.90;;;;;;5093948;28;19908;-81
2024/01/01 09:33:03;;;;;;;;;;;18.80;99.90;;;;;;5093832;28;20007;-80
2024/01/01 09:35:29;;;;;;;;;;;18.70;99.90;;;;;;5094208;28;19908;-80
2024/01/01 09:37:56;;;;;;;;;;;18.70;99.90;;;;;;5093737;28;20340;-81
2024/01/01 09:40:22;;;;;;;;;;;18.70;99.90;;;;;;5094095;28;19908;-80
2024/01/01 09:42:48;;;;;;;;;;;18.70;99.90;;;;;;5094002;28;20322;-81
2024/01/01 09:45:14;;;;;;;;;;;19.00;99.90;;;;;;5094267;28;19915;-80
2024/01/01 09:47:41;;;;;;;;;;;19.30;99.90;;;;;;5093732;28;19908;-81
2024/01/01 09:50:06;;;;;;;;;;;19.60;99.90;;;;;;5093451;28;19967;-81
2024/01/01 09:52:32;;;;;;;;;;;19.70;99.90;;;;;;5093824;28;20070;-82
2024/01/01 09:54:58;;;;;;;;;;;19.70;99.90;;;;;;5093552;28;19915;-80
2024/01/01 09:57:24;;;;;;;;;;;19.80;99.90;;;;;;5094227;28;19943;-81
2024/01/01 09:59:51;;;;;;;;;;;19.80;99.90;;;;;;5092240;28;19935;-81
2024/01/01 10:02:16;;;;;;;;;;;19.90;99.90;;;;;;5093479;28;19928;-81
2024/01/01 10:04:42;;;;;;;;;;;19.90;99.90;;;;;;5093012;28;19930;-81
2024/01/01 10:07:08;;;;;;;;;;;20.00;99.90;;;;;;5093932;28;20446;-81
2024/01/01 10:09:45;;;;;;;;;;;20.00;99.90;;;;;;5093709;28;19908;-81
2024/01/01 10:12:11;;;;;;;;;;;19.80;99.90;;;;;;5093974;28;19920;-80
2024/01/01 10:14:46;;;;;;;;;;;19.60;99.90;;;;;;5093558;28;19978;-82
2024/01/01 10:17:17;;;;;;;;;;;19.60;99.90;;;;;;5091899;28;19915;-81
2024/01/01 10:19:48;;;;;;;;;;;19.60;99.90;;;;;;5093518;28;19919;-81
2024/01/01 10:22:13;;;;;;;;;;;19.70;99.90;;;;;;5092312;28;19909;-81
2024/01/01 10:24:39;;;;;;;;;;;19.80;99.90;;;;;;5092350;28;19922;-80
2024/01/01 10:27:05;;;;;;;;;;;19.90;99.90;;;;;;5093742;28;19980;-82
2024/01/01 10:29:33;;;;;;;;;;;20.20;99.90;;;;;;5093253;28;19912;-81
2024/01/01 10:32:00;;;;;;;;;;;20.20;99.90;;;;;;5093395;28;20368;-83
2024/01/01 10:34:26;;;;;;;;;;;20.20;99.90;;;;;;5091590;28;19969;-82
2024/01/01 10:36:53;;;;;;;;;;;20.10;99.90;;;;;;5093134;28;19942;-84
2024/01/01 10:39:19;;;;;;;;;;;20.00;99.90;;;;;;5093603;28;19958;-83
2024/01/01 10:41:47;;;;;;;;;;;19.70;99.90;;;;;;5091672;28;20325;-83
2024/01/01 10:44:13;;;;;;;;;;;19.40;99.90;;;;;;5093124;28;19955;-83
2024/01/01 10:46:39;;;;;;;;;;;19.30;99.90;;;;;;5091482;28;19920;-84
2024/01/01 10:49:15;;;;;;;;;;;19.40;99.90;;;;;;5093145;28;20309;-83
2024/01/01 10:52:09;;;;;;;;;;;19.30;99.90;;;;;;5092855;28;19972;-82
2024/01/01 10:54:38;;;;;;;;;;;19.40;99.90;;;;;;5093050;28;20439;-83
2024/01/01 10:57:17;;;;;;;;;;;19.40;99.90;;;;;;5092991;28;19908;-82
2024/01/01 10:59:55;;;;;;;;;;;19.50;99.90;;;;;;5095276;28;20367;-82
2024/01/01 11:02:23;;;;;;;;;;;19.40;99.90;;;;;;5093585;28;19920;-83
2024/01/01 11:05:04;;;;;;;;;;;19.40;99.90;;;;;;5094611;28;19908;-83
2024/01/01 11:07:48;;;;;;;;;;;19.50;99.90;;;;;;5091577;28;20403;-81
2024/01/01 11:10:32;;;;;;;;;;;19.80;99.90;;;;;;5092723;28;19930;-81
2024/01/01 11:12:58;;;;;;;;;;;19.90;99.90;;;;;;5092887;28;19916;-83
2024/01/01 11:15:39;;;;;;;;;;;19.80;99.90;;;;;;5092826;28;20268;-82
2024/01/01 11:18:16;;;;;;;;;;;19.70;99.90;;;;;;5091017;28;19908;-80
2024/01/01 11:20:57;;;;;;;;;;;19.70;99.90;;;;;;5091815;28;21510;-83
2024/01/01 11:23:41;;;;;;;;;;;19.80;99.90;;;;;;5092775;28;19908;-83
2024/01/01 11:26:22;;;;;;;;;;;19.90;99.90;;;;;;5092326;28;19960;-83
2024/01/01 11:28:58;;;;;;;;;;;19.80;99.90;;;;;;5092511;28;19913;-82
2024/01/01 11:31:25;;;;;;;;;;;19.90;99.90;;;;;;5082918;28;20011;-82
2024/01/01 11:34:04;;;;;;;;;;;20.00;99.90;;;;;;5079454;28;19980;-84
2024/01/01 11:36:31;;;;;;;;;;;20.10;99.90;;;;;;5092624;28;19935;-82
2024/01/01 11:38:58;;;;;;;;;;;19.90;99.90;;;;;;5098367;28;20245;-83
2024/01/01 11:41:24;;;;;;;;;;;20.00;99.90;;;;;;5091873;28;19923;-85
2024/01/01 11:43:50;;;;;;;;;;;20.00;99.90;;;;;;5092122;28;19955;-84
2024/01/01 11:46:26;;;;;;;;;;;20.20;99.90;;;;;;5091089;28;19915;-83
2024/01/01 11:48:58;;;;;;;;;;;20.30;99.90;;;;;;5092676;28;19908;-83
2024/01/01 11:51:27;;;;;;;;;;;20.30;99.90;;;;;;5092284;28;19942;-83
2024/01/01 11:54:05;;;;;;;;;;;20.30;99.90;;;;;;5091961;28;19912;-82
2024/01/01 11:56:31;;;;;;;;;;;20.40;99.90;;;;;;5090199;28;19912;-82
2024/01/01 11:58:57;;;;;;;;;;;20.50;99.90;;;;;;5092248;28;19908;-82
2024/01/01 12:01:23;;;;;;;;;;;20.60;99.90;;;;;;5092242;28;19980;-83
2024/01/01 12:03:49;;;;;;;;;;;20.60;99.90;;;;;;5090419;28;20121;-83
2024/01/01 12:06:15;;;;;;;;;;;20.60;99.90;;;;;;5090602;28;19915;-83
2024/01/01 12:08:41;;;;;;;;;;;20.50;99.90;;;;;;5091672;28;19911;-83
2024/01/01 12:11:07;;;;;;;;;;;20.50;99.90;;;;;;5091803;28;19908;-84
2024/01/01 12:13:33;;;;;;;;;;;20.60;99.90;;;;;;5091534;28;19908;-80
2024/01/01 12:16:15;;;;;;;;;;;20.50;99.90;;;;;;5091634;28;19962;-83
2024/01/01 12:18:40;;;;;;;;;;;20.50;99.90;;;;;;5091411;28;19920;-83
2024/01/01 12:21:06;;;;;;;;;;;20.30;99.90;;;;;;5091696;28;20022;-83
2024/01/01 12:23:32;;;;;;;;;;;20.30;99.90;;;;;;5091392;28;19909;-83
2024/01/01 12:26:02;;;;;;;;;;;20.30;99.90;;;;;;5091575;28;19915;-83
2024/01/01 12:28:28;;;;;;;;;;;20.10;99.90;;;;;;5091946;28;19908;-82
2024/01/01 12:30:54;;;;;;;;;;;20.10;99.90;;;;;;5091693;28;19956;-79
2024/01/01 12:33:20;;;;;;;;;;;20.10;99.90;;;;;;5089844;28;19920;-82
2024/01/01 12:35:46;;;;;;;;;;;20.00;99.90;;;;;;5092513;28;19915;-82
2024/01/01 12:38:11;;;;;;;;;;;20.10;99.90;;;;;;5091284;28;19990;-82
2024/01/01 12:40:37;;;;;;;;;;;20.20;99.90;;;;;;5094216;28;19927;-84
2024/01/01 12:43:03;;;;;;;;;;;20.20;99.90;;;;;;5095769;28;19908;-83
2024/01/01 12:45:29;;;;;;;;;;;20.20;99.90;;;;;;5095673;28;20003;-84
2024/01/01 12:47:55;;;;;;;;;;;20.00;99.90;;;;;;5094050;28;19908;-84
2024/01/01 12:50:21;;;;;;;;;;;19.80;99.90;;;;;;5096009;28;20340;-84
2024/01/01 12:52:47;;;;;;;;;;;19.70;99.90;;;;;;5095815;28;20011;-84
2024/01/01 12:55:13;;;;;;;;;;;19.70;99.90;;;;;;5095606;28;20016;-85
2024/01/01 12:57:39;;;;;;;;;;;19.70;99.90;;;;;;5096430;28;20360;-84
2024/01/01 13:00:06;;;;;;;;;;;19.80;99.90;;;;;;5098232;28;19998;-83
2024/01/01 13:02:32;;;;;;;;;;;19.80;99.90;;;;;;5094110;28;19980;-83
2024/01/01 13:04:58;;;;;;;;;;;19.90;99.90;;;;;;5097496;28;19912;-84
2024/01/01 13:07:24;;;;;;;;;;;20.00;99.90;;;;;;5094304;28;20320;-83
2024/01/01 13:09:50;;;;;;;;;;;19.90;99.90;;;;;;5093677;28;19908;-84
2024/01/01 13:12:16;;;;;;;;;;;19.90;99.90;;;;;;5093738;28;19928;-84
2024/01/01 13:14:42;;;;;;;;;;;19.90;99.90;;;;;;5095322;28;19912;-83
2024/01/01 13:17:07;;;;;;;;;;;19.80;99.90;;;;;;5093612;28;19912;-84
2024/01/01 13:19:33;;;;;;;;;;;19.80;99.90;;;;;;5094837;28;19991;-83
2024/01/01 13:21:59;;;;;;;;;;;19.80;99.90;;;;;;5095567;28;20332;-83
2024/01/01 13:24:25;;;;;;;;;;;19.80;99.90;;;;;;5094932;28;19987;-85
2024/01/01 13:26:52;;;;;;;;;;;19.70;99.90;;;;;;5093164;28;19919;-82
2024/01/01 13:29:18;;;;;;;;;;;19.40;99.90;;;;;;5094437;28;19908;-83
2024/01/01 13:31:43;;;;;;;;;;;19.40;99.90;;;;;;5094509;28;19916;-82
2024/01/01 13:34:09;;;;;;;;;;;19.10;99.90;;;;;;5094090;28;19908;-84
2024/01/01 13:36:36;;;;;;;;;;;19.00;99.90;;;;;;5094368;28;19913;-83
2024/01/01 13:39:02;;;;;;;;;;;19.10;99.90;;;;;;5094528;28;20299;-83
2024/01/01 13:41:28;;;;;;;;;;;19.00;99.90;;;;;;5093198;28;20241;-84
2024/01/01 13:43:54;;;;;;;;;;;19.10;99.90;;;;;;5092900;28;19908;-83
2024/01/01 13:46:23;;;;;;;;;;;19.10;99.90;;;;;;5092760;28;20281;-84
2024/01/01 13:48:49;;;;;;;;;;;19.20;99.90;;;;;;5093520;28;20019;-83
2024/01/01 13:51:18;;;;;;;;;;;19.20;99.90;;;;;;5092464;28;20325;-83
2024/01/01 13:53:44;;;;;;;;;;;18.90;99.90;;;;;;5094801;28;19956;-83
2024/01/01 13:56:17;;;;;;;;;;;18.90;99.90;;;;;;5092822;28;20010;-84
2024/01/01 13:58:43;;;;;;;;;;;18.90;99.90;;;;;;5094259;28;20000;-83
2024/01/01 14:01:09;;;;;;;;;;;18.90;99.90;;;;;;5094506;28;19958;-84
2024/01/01 14:03:34;;;;;;;;;;;18.80;99.90;;;;;;5092235;28;19908;-83
2024/01/01 14:06:01;;;;;;;;;;;18.80;99.90;;;;;;5094080;28;19908;-83
2024/01/01 14:08:27;;;;;;;;;;;18.70;99.90;;;;;;5094414;28;19915;-84
2024/01/01 14:10:53;;;;;;;;;;;18.80;99.90;;;;;;5094526;28;20264;-84
2024/01/01 14:13:21;;;;;;;;;;;18.80;99.90;;;;;;5094090;28;20126;-83
2024/01/01 14:15:47;;;;;;;;;;;18.40;99.90;;;;;;5094125;28;19979;-84
2024/01/01 14:18:13;;;;;;;;;;;18.20;99.90;;;;;;5094461;28;20065;-84